createdAt,value
2018-01-11T00:00:31.971Z,870.54
2018-01-11T00:01:32.033Z,870.56
2018-01-11T00:02:32.033Z,870.53
2018-01-11T00:03:32.083Z,870.55
2018-01-11T00:04:32.096Z,870.49
2018-01-11T00:05:32.159Z,870.54
2018-01-11T00:06:32.168Z,870.58
2018-01-11T00:07:32.205Z,870.54
2018-01-11T00:08:32.810Z,870.55
2018-01-11T00:09:32.291Z,870.55
2018-01-11T00:10:32.290Z,870.56
2018-01-11T00:11:32.337Z,870.55
2018-01-11T00:12:32.344Z,870.59
2018-01-11T00:13:32.408Z,870.58
2018-01-11T00:14:32.419Z,870.59
2018-01-11T00:15:32.467Z,870.65
2018-01-11T00:16:32.480Z,870.59
2018-01-11T00:17:32.533Z,870.59
2018-01-11T00:18:32.542Z,870.62
2018-01-11T00:19:32.595Z,870.65
2018-01-11T00:20:32.593Z,870.67
2018-01-11T00:21:32.664Z,870.68
2018-01-11T00:22:32.658Z,870.71
2018-01-11T00:23:32.720Z,870.72
2018-01-11T00:24:32.717Z,870.73
2018-01-11T00:25:32.782Z,870.73
2018-01-11T00:26:32.794Z,870.76
2018-01-11T00:27:32.846Z,870.80
2018-01-11T00:28:32.847Z,870.78
2018-01-11T00:29:32.913Z,870.76
2018-01-11T00:30:32.909Z,870.72
2018-01-11T00:31:32.967Z,870.73
2018-01-11T00:32:32.969Z,870.72
2018-01-11T00:33:33.039Z,870.76
2018-01-11T00:34:33.140Z,870.74
2018-01-11T00:35:33.083Z,870.74
2018-01-11T00:36:33.106Z,870.76
2018-01-11T00:37:33.164Z,870.85
2018-01-11T00:38:33.158Z,870.86
2018-01-11T00:39:33.216Z,870.86
2018-01-11T00:40:33.232Z,870.93
2018-01-11T00:41:33.284Z,870.92
2018-01-11T00:42:33.280Z,870.94
2018-01-11T00:43:33.342Z,870.93
2018-01-11T00:44:33.350Z,870.92
2018-01-11T00:45:33.414Z,870.93
2018-01-11T00:46:33.404Z,870.89
2018-01-11T00:47:33.455Z,870.92
2018-01-11T00:48:33.480Z,870.91
2018-01-11T00:49:33.539Z,870.94
2018-01-11T00:50:33.539Z,870.97
2018-01-11T00:51:33.583Z,870.93
2018-01-11T00:52:33.591Z,870.95
2018-01-11T00:53:33.663Z,870.97
2018-01-11T00:54:33.665Z,870.96
2018-01-11T00:55:33.705Z,871.02
2018-01-11T00:56:33.726Z,871.07
2018-01-11T00:57:33.778Z,871.06
2018-01-11T00:58:33.782Z,871.09
2018-01-11T00:59:33.845Z,871.05
2018-01-11T01:00:33.845Z,871.03
2018-01-11T01:01:33.914Z,871.06
2018-01-11T01:02:33.904Z,871.07
2018-01-11T01:03:33.958Z,871.05
2018-01-11T01:04:33.970Z,871.12
2018-01-11T01:05:34.045Z,871.11
2018-01-11T01:06:34.039Z,871.14
2018-01-11T01:07:34.079Z,871.10
2018-01-11T01:08:34.100Z,871.13
2018-01-11T01:09:34.155Z,871.13
2018-01-11T01:10:34.221Z,871.16
2018-01-11T01:11:34.242Z,871.18
2018-01-11T01:12:34.231Z,871.13
2018-01-11T01:13:34.329Z,871.18
2018-01-11T01:14:34.308Z,871.18
2018-01-11T01:15:34.351Z,871.19
2018-01-11T01:16:34.344Z,871.16
2018-01-11T01:17:34.434Z,871.18
2018-01-11T01:18:34.409Z,871.25
2018-01-11T01:19:34.458Z,871.27
2018-01-11T01:20:34.475Z,871.28
2018-01-11T01:21:34.530Z,871.23
2018-01-11T01:22:34.537Z,871.21
2018-01-11T01:23:34.582Z,871.20
2018-01-11T01:24:34.594Z,871.20
2018-01-11T01:25:34.679Z,871.23
2018-01-11T01:26:34.704Z,871.26
2018-01-11T01:27:34.707Z,871.29
2018-01-11T01:28:34.795Z,871.33
2018-01-11T01:29:34.834Z,871.34
2018-01-11T01:30:34.834Z,871.37
2018-01-11T01:31:34.874Z,871.43
2018-01-11T01:32:34.910Z,871.42
2018-01-11T01:33:35.017Z,871.46
2018-01-11T01:34:35.002Z,871.45
2018-01-11T01:35:35.283Z,871.41
2018-01-11T01:36:34.989Z,871.37
2018-01-11T01:37:35.117Z,871.40
2018-01-11T01:38:35.115Z,871.47
2018-01-11T01:39:35.136Z,871.44
2018-01-11T01:40:35.152Z,871.42
2018-01-11T01:41:35.185Z,871.45
2018-01-11T01:42:35.224Z,871.51
2018-01-11T01:43:35.289Z,871.50
2018-01-11T01:44:35.232Z,871.49
2018-01-11T01:45:35.316Z,871.50
2018-01-11T01:46:35.289Z,871.53
2018-01-11T01:47:35.340Z,871.62
2018-01-11T01:48:35.340Z,871.58
2018-01-11T01:49:35.410Z,871.55
2018-01-11T01:50:35.415Z,871.60
2018-01-11T01:51:35.455Z,871.58
2018-01-11T01:52:35.463Z,871.64
2018-01-11T01:53:35.536Z,871.59
2018-01-11T01:54:35.536Z,871.59
2018-01-11T01:55:35.597Z,871.62
2018-01-11T01:56:35.600Z,871.67
2018-01-11T01:57:35.742Z,871.71
2018-01-11T01:58:35.685Z,871.73
2018-01-11T01:59:35.729Z,871.76
2018-01-11T02:00:35.761Z,871.78
2018-01-11T02:01:35.822Z,871.74
2018-01-11T02:02:35.855Z,871.72
2018-01-11T02:03:35.899Z,871.77
2018-01-11T02:04:35.926Z,871.79
2018-01-11T02:05:35.960Z,871.80
2018-01-11T02:06:35.961Z,871.80
2018-01-11T02:07:36.002Z,871.76
2018-01-11T02:08:35.981Z,871.80
2018-01-11T02:09:36.094Z,871.84
2018-01-11T02:10:36.036Z,871.83
2018-01-11T02:11:36.073Z,871.86
2018-01-11T02:12:36.089Z,871.85
2018-01-11T02:13:36.151Z,871.86
2018-01-11T02:14:36.148Z,871.83
2018-01-11T02:15:36.202Z,871.85
2018-01-11T02:16:36.223Z,871.84
2018-01-11T02:17:36.283Z,871.81
2018-01-11T02:18:36.274Z,871.83
2018-01-11T02:19:36.334Z,871.83
2018-01-11T02:20:36.336Z,871.80
2018-01-11T02:21:36.415Z,871.88
2018-01-11T02:22:36.398Z,871.92
2018-01-11T02:23:36.453Z,871.91
2018-01-11T02:24:36.464Z,871.92
2018-01-11T02:25:36.526Z,871.93
2018-01-11T02:26:36.535Z,871.93
2018-01-11T02:27:36.583Z,871.96
2018-01-11T02:28:36.597Z,871.99
2018-01-11T02:29:36.662Z,872.02
2018-01-11T02:30:36.648Z,872.05
2018-01-11T02:31:36.680Z,872.04
2018-01-11T02:32:36.734Z,871.98
2018-01-11T02:33:36.753Z,871.97
2018-01-11T02:34:36.807Z,871.95
2018-01-11T02:35:36.815Z,871.95
2018-01-11T02:36:36.865Z,871.96
2018-01-11T02:37:36.876Z,871.97
2018-01-11T02:38:36.935Z,871.96
2018-01-11T02:39:36.941Z,871.95
2018-01-11T02:40:37.151Z,871.99
2018-01-11T02:41:37.001Z,872.04
2018-01-11T02:42:37.067Z,872.08
2018-01-11T02:43:37.057Z,872.04
2018-01-11T02:44:37.107Z,872.04
2018-01-11T02:45:37.118Z,872.10
2018-01-11T02:46:37.184Z,872.08
2018-01-11T02:47:37.181Z,872.11
2018-01-11T02:48:37.231Z,872.12
2018-01-11T02:49:37.255Z,872.09
2018-01-11T02:50:37.316Z,872.11
2018-01-11T02:51:37.317Z,872.09
2018-01-11T02:52:37.354Z,872.12
2018-01-11T02:53:37.369Z,872.17
2018-01-11T02:54:37.433Z,872.14
2018-01-11T02:55:37.443Z,872.18
2018-01-11T02:56:37.482Z,872.20
2018-01-11T02:57:37.499Z,872.16
2018-01-11T02:58:37.556Z,872.16
2018-01-11T02:59:37.558Z,872.20
2018-01-11T03:00:37.616Z,872.19
2018-01-11T03:01:38.189Z,872.23
2018-01-11T03:02:37.679Z,872.19
2018-01-11T03:03:37.679Z,872.24
2018-01-11T03:04:37.737Z,872.24
2018-01-11T03:05:37.748Z,872.26
2018-01-11T03:06:37.803Z,872.29
2018-01-11T03:07:37.817Z,872.27
2018-01-11T03:08:37.852Z,872.32
2018-01-11T03:09:37.877Z,872.36
2018-01-11T03:10:37.934Z,872.41
2018-01-11T03:11:37.943Z,872.46
2018-01-11T03:12:37.982Z,872.44
2018-01-11T03:13:37.993Z,872.41
2018-01-11T03:14:38.163Z,872.43
2018-01-11T03:15:38.065Z,872.44
2018-01-11T03:16:38.105Z,872.43
2018-01-11T03:17:38.128Z,872.43
2018-01-11T03:18:38.181Z,872.47
2018-01-11T03:19:38.191Z,872.46
2018-01-11T03:20:38.243Z,872.47
2018-01-11T03:21:38.446Z,872.52
2018-01-11T03:22:38.304Z,872.56
2018-01-11T03:23:38.303Z,872.49
2018-01-11T03:24:38.955Z,872.52
2018-01-11T03:25:38.369Z,872.54
2018-01-11T03:26:38.439Z,872.52
2018-01-11T03:27:38.432Z,872.54
2018-01-11T03:28:38.490Z,872.54
2018-01-11T03:29:38.505Z,872.56
2018-01-11T03:30:38.569Z,872.60
2018-01-11T03:31:38.565Z,872.60
2018-01-11T03:32:38.613Z,872.56
2018-01-11T03:33:38.620Z,872.58
2018-01-11T03:34:38.682Z,872.61
2018-01-11T03:35:38.678Z,872.61
2018-01-11T03:36:38.730Z,872.68
2018-01-11T03:37:38.751Z,872.65
2018-01-11T03:38:38.817Z,872.61
2018-01-11T03:39:38.805Z,872.60
2018-01-11T03:40:38.865Z,872.62
2018-01-11T03:41:38.867Z,872.62
2018-01-11T03:42:38.944Z,872.58
2018-01-11T03:43:38.939Z,872.58
2018-01-11T03:44:39.284Z,872.60
2018-01-11T03:45:39.323Z,872.61
2018-01-11T03:46:39.065Z,872.60
2018-01-11T03:47:39.055Z,872.56
2018-01-11T03:48:39.115Z,872.59
2018-01-11T03:49:39.133Z,872.68
2018-01-11T03:50:39.181Z,872.71
2018-01-11T03:51:39.224Z,872.73
2018-01-11T03:52:39.250Z,872.71
2018-01-11T03:53:39.251Z,872.71
2018-01-11T03:54:39.324Z,872.72
2018-01-11T03:55:39.315Z,872.69
2018-01-11T03:56:39.371Z,872.68
2018-01-11T03:57:39.382Z,872.69
2018-01-11T03:58:39.432Z,872.68
2018-01-11T03:59:39.505Z,872.72
2018-01-11T04:00:39.492Z,872.69
2018-01-11T04:01:39.510Z,872.69
2018-01-11T04:02:39.600Z,872.66
2018-01-11T04:03:39.564Z,872.63
2018-01-11T04:04:39.607Z,872.62
2018-01-11T04:05:39.626Z,872.63
2018-01-11T04:06:39.688Z,872.60
2018-01-11T04:07:39.886Z,872.57
2018-01-11T04:08:39.742Z,872.58
2018-01-11T04:09:39.749Z,872.56
2018-01-11T04:10:39.810Z,872.57
2018-01-11T04:11:39.810Z,872.58
2018-01-11T04:12:39.868Z,872.61
2018-01-11T04:13:39.873Z,872.56
2018-01-11T04:14:39.914Z,872.55
2018-01-11T04:15:39.964Z,872.52
2018-01-11T04:16:39.972Z,872.51
2018-01-11T04:17:40.032Z,872.58
2018-01-11T04:18:40.031Z,872.58
2018-01-11T04:19:40.080Z,872.53
2018-01-11T04:20:40.098Z,872.56
2018-01-11T04:21:40.155Z,872.56
2018-01-11T04:22:40.161Z,872.53
2018-01-11T04:23:40.206Z,872.54
2018-01-11T04:24:40.223Z,872.55
2018-01-11T04:25:40.294Z,872.52
2018-01-11T04:26:40.295Z,872.52
2018-01-11T04:27:40.341Z,872.51
2018-01-11T04:28:40.353Z,872.55
2018-01-11T04:29:40.410Z,872.48
2018-01-11T04:30:40.516Z,872.48
2018-01-11T04:31:40.466Z,872.51
2018-01-11T04:32:40.468Z,872.49
2018-01-11T04:33:40.550Z,872.51
2018-01-11T04:34:40.533Z,872.48
2018-01-11T04:35:40.588Z,872.51
2018-01-11T04:36:41.201Z,872.54
2018-01-11T04:37:40.677Z,872.47
2018-01-11T04:38:40.658Z,872.52
2018-01-11T04:39:40.709Z,872.47
2018-01-11T04:40:40.727Z,872.45
2018-01-11T04:41:40.839Z,872.49
2018-01-11T04:42:40.793Z,872.47
2018-01-11T04:43:40.842Z,872.43
2018-01-11T04:44:40.852Z,872.43
2018-01-11T04:45:40.945Z,872.43
2018-01-11T04:46:40.921Z,872.46
2018-01-11T04:47:40.964Z,872.48
2018-01-11T04:48:40.970Z,872.44
2018-01-11T04:49:41.086Z,872.43
2018-01-11T04:51:41.496Z,872.48
2018-01-11T04:52:41.116Z,872.48
2018-01-11T04:53:41.139Z,872.37
2018-01-11T04:54:41.221Z,872.35
2018-01-11T04:55:41.918Z,872.32
2018-01-11T04:57:41.274Z,872.33
2018-01-11T04:58:41.305Z,872.32
2018-01-11T04:59:41.364Z,872.31
2018-01-11T05:00:41.351Z,872.33
2018-01-11T05:01:41.422Z,872.29
2018-01-11T05:02:41.419Z,872.23
2018-01-11T05:03:41.455Z,872.23
2018-01-11T05:04:41.544Z,872.16
2018-01-11T05:05:41.506Z,872.20
2018-01-11T05:06:41.565Z,872.22
2018-01-11T05:07:41.581Z,872.22
2018-01-11T05:08:41.678Z,872.19
2018-01-11T05:09:41.631Z,872.16
2018-01-11T05:10:41.684Z,872.10
2018-01-11T05:11:41.703Z,872.05
2018-01-11T05:12:41.774Z,872.03
2018-01-11T05:13:41.777Z,872.01
2018-01-11T05:14:41.822Z,871.97
2018-01-11T05:15:41.838Z,872.02
2018-01-11T05:16:41.938Z,872.00
2018-01-11T05:17:41.893Z,871.98
2018-01-11T05:18:41.948Z,872.01
2018-01-11T05:19:41.969Z,871.97
2018-01-11T05:20:42.059Z,871.94
2018-01-11T05:21:42.024Z,871.96
2018-01-11T05:23:42.102Z,871.91
2018-01-11T05:24:42.111Z,871.86
2018-01-11T05:25:42.211Z,871.85
2018-01-11T05:26:42.173Z,871.83
2018-01-11T05:27:42.229Z,871.86
2018-01-11T05:28:42.241Z,871.77
2018-01-11T05:29:42.330Z,871.81
2018-01-11T05:30:42.301Z,871.80
2018-01-11T05:31:42.356Z,871.78
2018-01-11T05:32:42.376Z,871.75
2018-01-11T05:33:42.460Z,871.74
2018-01-11T05:34:42.438Z,871.73
2018-01-11T05:35:42.477Z,871.70
2018-01-11T05:36:42.499Z,871.70
2018-01-11T05:37:42.575Z,871.67
2018-01-11T05:38:42.564Z,871.67
2018-01-11T05:39:42.604Z,871.70
2018-01-11T05:40:42.622Z,871.64
2018-01-11T05:41:42.888Z,871.62
2018-01-11T05:42:42.693Z,871.62
2018-01-11T05:43:42.732Z,871.60
2018-01-11T05:44:42.744Z,871.59
2018-01-11T05:46:43.100Z,871.58
2018-01-11T05:47:42.917Z,871.54
2018-01-11T05:48:42.914Z,871.54
2018-01-11T05:49:42.918Z,871.51
2018-01-11T05:50:43.033Z,871.52
2018-01-11T05:51:42.989Z,871.54
2018-01-11T05:52:43.041Z,871.49
2018-01-11T05:53:43.059Z,871.48
2018-01-11T05:54:43.168Z,871.53
2018-01-11T05:56:43.245Z,871.49
2018-01-11T05:57:43.708Z,871.46
2018-01-11T05:58:43.218Z,871.45
2018-01-11T05:59:43.334Z,871.44
2018-01-11T06:00:43.289Z,871.41
2018-01-11T06:01:43.347Z,871.44
2018-01-11T06:02:43.374Z,871.39
2018-01-11T06:03:43.514Z,871.40
2018-01-11T06:04:43.447Z,871.39
2018-01-11T06:05:43.484Z,871.35
2018-01-11T06:06:43.508Z,871.29
2018-01-11T06:07:43.638Z,871.29
2018-01-11T06:08:43.596Z,871.29
2018-01-11T06:09:43.628Z,871.30
2018-01-11T06:10:43.645Z,871.31
2018-01-11T06:11:43.793Z,871.31
2018-01-11T06:12:43.731Z,871.26
2018-01-11T06:13:43.780Z,871.24
2018-01-11T06:14:43.792Z,871.21
2018-01-11T06:15:43.955Z,871.21
2018-01-11T06:16:43.886Z,871.19
2018-01-11T06:17:43.935Z,871.18
2018-01-11T06:18:43.967Z,871.14
2018-01-11T06:19:44.084Z,871.07
2018-01-11T06:20:44.032Z,871.10
2018-01-11T06:21:44.093Z,871.01
2018-01-11T06:22:44.112Z,871.01
2018-01-11T06:23:44.240Z,871.02
2018-01-11T06:24:44.371Z,871.03
2018-01-11T06:25:44.229Z,871.01
2018-01-11T06:26:44.228Z,870.98
2018-01-11T06:27:44.478Z,870.96
2018-01-11T06:28:44.332Z,870.92
2018-01-11T06:29:44.380Z,870.92
2018-01-11T06:30:44.379Z,870.91
2018-01-11T06:31:44.546Z,870.92
2018-01-11T06:32:44.478Z,870.92
2018-01-11T06:33:44.524Z,870.93
2018-01-11T06:34:44.579Z,870.86
2018-01-11T06:35:44.709Z,870.85
2018-01-11T06:37:29.176Z,870.85
2018-01-11T06:38:29.107Z,870.86
2018-01-11T06:39:29.155Z,870.84
2018-01-11T06:40:29.186Z,870.84
2018-01-11T06:41:30.127Z,870.79
2018-01-11T06:42:29.288Z,870.78
2018-01-11T06:43:29.314Z,870.77
2018-01-11T06:44:29.322Z,870.73
2018-01-11T06:45:29.397Z,870.70
2018-01-11T06:46:29.412Z,870.67
2018-01-11T06:47:29.478Z,870.68
2018-01-11T06:48:29.514Z,870.65
2018-01-11T06:49:29.552Z,870.64
2018-01-11T06:50:29.580Z,870.64
2018-01-11T06:51:29.633Z,870.60
2018-01-11T06:52:29.613Z,870.54
2018-01-11T06:53:29.644Z,870.53
2018-01-11T06:54:29.705Z,870.55
2018-01-11T06:55:29.754Z,870.56
2018-01-11T06:56:29.764Z,870.52
2018-01-11T06:57:29.796Z,870.46
2018-01-11T06:58:31.232Z,870.45
2018-01-11T06:59:29.893Z,870.43
2018-01-11T07:00:29.939Z,870.37
2018-01-11T07:01:29.932Z,870.34
2018-01-11T07:02:29.995Z,870.36
2018-01-11T07:03:30.035Z,870.34
2018-01-11T07:04:30.076Z,870.28
2018-01-11T07:06:30.113Z,870.28
2018-01-11T07:07:30.150Z,870.26
2018-01-11T07:09:30.268Z,870.21
2018-01-11T07:10:30.257Z,870.16
2018-01-11T07:11:30.303Z,870.14
2018-01-11T07:12:30.442Z,870.14
2018-01-11T07:13:30.402Z,870.11
2018-01-11T07:14:30.436Z,870.11
2018-01-11T07:15:30.443Z,870.04
2018-01-11T07:16:30.501Z,870.03
2018-01-11T07:18:30.684Z,870.11
2018-01-11T07:19:30.614Z,869.99
2018-01-11T07:20:30.629Z,869.90
2018-01-11T07:21:30.692Z,869.91
2018-01-11T07:22:30.727Z,869.90
2018-01-11T07:23:30.767Z,869.85
2018-01-11T07:24:30.834Z,869.85
2018-01-11T07:25:30.846Z,869.84
2018-01-11T07:26:30.907Z,869.81
2018-01-11T07:27:30.947Z,869.80
2018-01-11T07:28:30.974Z,869.77
2018-01-11T07:29:31.004Z,869.72
2018-01-11T07:30:31.038Z,869.73
2018-01-11T07:31:31.067Z,869.72
2018-01-11T07:32:31.116Z,869.69
2018-01-11T07:33:31.297Z,869.70
2018-01-11T07:34:31.168Z,869.65
2018-01-11T07:35:31.220Z,869.69
2018-01-11T07:36:31.229Z,869.65
2018-01-11T07:37:31.267Z,869.63
2018-01-11T07:38:31.294Z,869.58
2018-01-11T07:39:31.369Z,869.57
2018-01-11T07:40:31.379Z,869.60
2018-01-11T07:41:31.411Z,869.53
2018-01-11T07:42:31.467Z,869.54
2018-01-11T07:43:31.481Z,869.44
2018-01-11T07:44:31.516Z,869.43
2018-01-11T07:45:31.559Z,869.42
2018-01-11T07:46:31.573Z,869.37
2018-01-11T07:47:31.618Z,869.36
2018-01-11T07:48:31.663Z,869.34
2018-01-11T07:49:31.657Z,869.32
2018-01-11T07:50:31.707Z,869.27
2018-01-11T07:51:31.755Z,869.24
2018-01-11T07:52:31.777Z,869.24
2018-01-11T07:54:31.906Z,869.22
2018-01-11T07:55:31.872Z,869.21
2018-01-11T07:56:31.928Z,869.20
2018-01-11T07:58:31.996Z,869.18
2018-01-11T07:59:32.030Z,869.16
2018-01-11T08:00:32.063Z,869.15
2018-01-11T08:01:32.083Z,869.11
2018-01-11T08:02:32.136Z,869.09
2018-01-11T08:03:32.154Z,869.09
2018-01-11T08:04:32.438Z,869.09
2018-01-11T08:05:32.230Z,869.06
2018-01-11T08:06:32.263Z,869.09
2018-01-11T08:07:32.313Z,869.04
2018-01-11T08:08:32.311Z,869.03
2018-01-11T08:09:32.328Z,868.98
2018-01-11T08:10:32.373Z,868.93
2018-01-11T08:11:32.407Z,868.93
2018-01-11T08:12:32.465Z,868.98
2018-01-11T08:13:32.474Z,868.97
2018-01-11T08:14:32.516Z,868.94
2018-01-11T08:15:32.543Z,868.91
2018-01-11T08:16:32.593Z,868.92
2018-01-11T08:17:32.617Z,868.94
2018-01-11T08:18:32.628Z,868.91
2018-01-11T08:19:32.674Z,868.90
2018-01-11T08:20:32.731Z,868.87
2018-01-11T08:21:32.739Z,868.87
2018-01-11T08:22:32.723Z,868.83
2018-01-11T08:23:32.769Z,868.79
2018-01-11T08:24:32.788Z,868.74
2018-01-11T08:25:32.827Z,868.73
2018-01-11T08:26:32.865Z,868.72
2018-01-11T08:27:32.907Z,868.72
2018-01-11T08:28:32.945Z,868.70
2018-01-11T08:29:32.984Z,868.68
2018-01-11T08:30:33.034Z,868.71
2018-01-11T08:32:33.052Z,868.68
2018-01-11T08:33:33.120Z,868.66
2018-01-11T08:34:33.138Z,868.67
2018-01-11T08:35:33.155Z,868.69
2018-01-11T08:36:33.198Z,868.67
2018-01-11T08:37:33.685Z,868.66
2018-01-11T08:38:33.272Z,868.67
2018-01-11T08:39:33.315Z,868.64
2018-01-11T08:40:33.329Z,868.58
2018-01-11T08:41:33.355Z,868.65
2018-01-11T08:42:33.398Z,868.58
2018-01-11T08:43:33.409Z,868.53
2018-01-11T08:44:33.451Z,868.59
2018-01-11T08:45:33.499Z,868.59
2018-01-11T08:46:33.522Z,868.53
2018-01-11T08:47:33.569Z,868.57
2018-01-11T08:48:33.595Z,868.56
2018-01-11T08:49:33.617Z,868.59
2018-01-11T08:50:33.653Z,868.52
2018-01-11T08:51:33.707Z,868.50
2018-01-11T08:52:33.733Z,868.54
2018-01-11T08:53:33.760Z,868.49
2018-01-11T08:54:33.832Z,868.44
2018-01-11T08:55:33.840Z,868.44
2018-01-11T08:56:33.875Z,868.45
2018-01-11T08:57:33.894Z,868.45
2018-01-11T08:58:33.928Z,868.49
2018-01-11T08:59:33.978Z,868.43
2018-01-11T09:00:34.024Z,868.40
2018-01-11T09:01:34.035Z,868.41
2018-01-11T09:02:34.083Z,868.46
2018-01-11T09:03:35.089Z,868.43
2018-01-11T09:04:34.164Z,868.42
2018-01-11T09:05:34.445Z,868.40
2018-01-11T09:06:34.233Z,868.38
2018-01-11T09:07:34.250Z,868.31
2018-01-11T09:08:34.254Z,868.36
2018-01-11T09:09:34.308Z,868.39
2018-01-11T09:10:34.323Z,868.39
2018-01-11T09:11:34.373Z,868.34
2018-01-11T09:12:34.397Z,868.34
2018-01-11T09:13:34.416Z,868.35
2018-01-11T09:14:34.447Z,868.32
2018-01-11T09:15:34.696Z,868.29
2018-01-11T09:16:34.535Z,868.30
2018-01-11T09:17:34.569Z,868.26
2018-01-11T09:18:34.596Z,868.23
2018-01-11T09:19:34.640Z,868.24
2018-01-11T09:20:34.658Z,868.34
2018-01-11T09:21:34.710Z,868.28
2018-01-11T09:22:34.724Z,868.26
2018-01-11T09:23:34.779Z,868.24
2018-01-11T09:24:35.113Z,868.24
2018-01-11T09:25:34.827Z,868.22
2018-01-11T09:26:34.855Z,868.24
2018-01-11T09:27:34.882Z,868.25
2018-01-11T09:28:34.918Z,868.29
2018-01-11T09:29:34.956Z,868.26
2018-01-11T09:30:34.988Z,868.24
2018-01-11T09:31:35.048Z,868.22
2018-01-11T09:32:35.058Z,868.23
2018-01-11T09:33:35.125Z,868.22
2018-01-11T09:34:35.153Z,868.25
2018-01-11T09:35:35.202Z,868.28
2018-01-11T09:36:35.222Z,868.27
2018-01-11T09:37:35.214Z,868.28
2018-01-11T09:38:35.886Z,868.28
2018-01-11T09:39:35.340Z,868.23
2018-01-11T09:40:35.442Z,868.21
2018-01-11T09:41:35.372Z,868.23
2018-01-11T09:42:35.380Z,868.30
2018-01-11T09:43:35.442Z,868.27
2018-01-11T09:44:35.471Z,868.28
2018-01-11T09:45:35.507Z,868.30
2018-01-11T09:46:35.536Z,868.31
2018-01-11T09:47:35.546Z,868.31
2018-01-11T09:48:35.614Z,868.29
2018-01-11T09:49:35.658Z,868.28
2018-01-11T09:50:35.668Z,868.27
2018-01-11T09:51:35.687Z,868.35
2018-01-11T09:52:35.689Z,868.32
2018-01-11T09:53:35.737Z,868.29
2018-01-11T09:54:35.769Z,868.32
2018-01-11T09:55:35.808Z,868.31
2018-01-11T09:56:35.816Z,868.29
2018-01-11T09:57:35.868Z,868.33
2018-01-11T09:58:35.886Z,868.33
2018-01-11T09:59:35.916Z,868.34
2018-01-11T10:00:35.969Z,868.36
2018-01-11T10:01:35.990Z,868.39
2018-01-11T10:02:36.078Z,868.35
2018-01-11T10:03:36.073Z,868.36
2018-01-11T10:04:36.084Z,868.34
2018-01-11T10:05:36.124Z,868.35
2018-01-11T10:06:36.172Z,868.29
2018-01-11T10:07:36.218Z,868.28
2018-01-11T10:08:36.220Z,868.35
2018-01-11T10:09:36.263Z,868.34
2018-01-11T10:10:36.279Z,868.35
2018-01-11T10:11:36.339Z,868.33
2018-01-11T10:12:36.590Z,868.34
2018-01-11T10:13:36.382Z,868.27
2018-01-11T10:14:36.423Z,868.28
2018-01-11T10:15:36.454Z,868.31
2018-01-11T10:16:36.510Z,868.31
2018-01-11T10:17:36.551Z,868.30
2018-01-11T10:18:36.603Z,868.30
2018-01-11T10:19:36.674Z,868.33
2018-01-11T10:20:36.690Z,868.34
2018-01-11T10:21:36.998Z,868.32
2018-01-11T10:22:36.738Z,868.29
2018-01-11T10:23:36.944Z,868.34
2018-01-11T10:24:36.987Z,868.33
2018-01-11T10:25:36.820Z,868.34
2018-01-11T10:26:36.902Z,868.29
2018-01-11T10:27:36.966Z,868.32
2018-01-11T10:28:36.960Z,868.30
2018-01-11T10:29:36.935Z,868.30
2018-01-11T10:30:36.957Z,868.32
2018-01-11T10:31:37.241Z,868.31
2018-01-11T10:32:38.434Z,868.29
2018-01-11T10:33:37.068Z,868.27
2018-01-11T10:34:37.072Z,868.34
2018-01-11T10:35:37.116Z,868.36
2018-01-11T10:37:37.187Z,868.33
2018-01-11T10:38:37.219Z,868.34
2018-01-11T10:39:37.247Z,868.36
2018-01-11T10:40:37.290Z,868.36
2018-01-11T10:41:37.319Z,868.35
2018-01-11T10:42:37.347Z,868.34
2018-01-11T10:43:37.404Z,868.34
2018-01-11T10:44:37.419Z,868.28
2018-01-11T10:45:37.447Z,868.30
2018-01-11T10:46:37.498Z,868.32
2018-01-11T10:47:37.523Z,868.34
2018-01-11T10:48:37.564Z,868.33
2018-01-11T10:49:37.595Z,868.31
2018-01-11T10:50:37.623Z,868.36
2018-01-11T10:51:37.691Z,868.34
2018-01-11T10:52:37.721Z,868.32
2018-01-11T10:53:37.751Z,868.33
2018-01-11T10:54:37.804Z,868.41
2018-01-11T10:55:37.826Z,868.45
2018-01-11T10:56:37.824Z,868.40
2018-01-11T10:57:37.874Z,868.39
2018-01-11T10:58:37.922Z,868.42
2018-01-11T10:59:37.968Z,868.46
2018-01-11T11:00:38.461Z,868.53
2018-01-11T11:01:38.023Z,868.48
2018-01-11T11:02:38.093Z,868.47
2018-01-11T11:03:38.104Z,868.45
2018-01-11T11:04:38.147Z,868.44
2018-01-11T11:05:38.189Z,868.39
2018-01-11T11:06:38.218Z,868.42
2018-01-11T11:07:38.232Z,868.49
2018-01-11T11:08:38.619Z,868.43
2018-01-11T11:09:38.529Z,868.42
2018-01-11T11:10:38.376Z,868.42
2018-01-11T11:11:38.366Z,868.42
2018-01-11T11:12:38.423Z,868.45
2018-01-11T11:13:38.438Z,868.38
2018-01-11T11:14:38.491Z,868.42
2018-01-11T11:15:38.499Z,868.42
2018-01-11T11:16:38.551Z,868.46
2018-01-11T11:17:38.620Z,868.46
2018-01-11T11:18:38.606Z,868.41
2018-01-11T11:19:38.645Z,868.48
2018-01-11T11:20:38.686Z,868.49
2018-01-11T11:21:38.726Z,868.42
2018-01-11T11:22:38.724Z,868.36
2018-01-11T11:23:38.766Z,868.34
2018-01-11T11:24:38.797Z,868.38
2018-01-11T11:26:38.872Z,868.41
2018-01-11T11:27:38.902Z,868.41
2018-01-11T11:28:38.947Z,868.42
2018-01-11T11:29:39.034Z,868.45
2018-01-11T11:30:39.016Z,868.47
2018-01-11T11:31:39.065Z,868.49
2018-01-11T11:32:39.077Z,868.50
2018-01-11T11:33:39.114Z,868.53
2018-01-11T11:34:39.136Z,868.51
2018-01-11T11:35:39.163Z,868.46
2018-01-11T11:36:39.214Z,868.49
2018-01-11T11:37:39.229Z,868.50
2018-01-11T11:38:39.273Z,868.53
2018-01-11T11:39:39.291Z,868.51
2018-01-11T11:40:39.323Z,868.51
2018-01-11T11:41:39.360Z,868.47
2018-01-11T11:42:39.392Z,868.52
2018-01-11T11:43:39.433Z,868.49
2018-01-11T11:44:39.472Z,868.50
2018-01-11T11:45:39.482Z,868.58
2018-01-11T11:46:39.521Z,868.65
2018-01-11T11:47:39.552Z,868.63
2018-01-11T11:48:39.573Z,868.62
2018-01-11T11:49:39.621Z,868.57
2018-01-11T11:50:39.631Z,868.55
2018-01-11T11:51:39.677Z,868.58
2018-01-11T11:52:39.711Z,868.61
2018-01-11T11:53:39.752Z,868.59
2018-01-11T11:54:39.845Z,868.59
2018-01-11T11:55:39.786Z,868.59
2018-01-11T11:56:39.843Z,868.62
2018-01-11T11:57:39.892Z,868.66
2018-01-11T11:58:40.242Z,868.67
2018-01-11T12:00:40.120Z,868.61
2018-01-11T12:01:40.008Z,868.58
2018-01-11T12:02:40.046Z,868.60
2018-01-11T12:03:40.079Z,868.60
2018-01-11T12:04:40.124Z,868.68
2018-01-11T12:05:40.154Z,868.73
2018-01-11T12:06:40.182Z,868.77
2018-01-11T12:07:40.236Z,868.75
2018-01-11T12:08:40.252Z,868.71
2018-01-11T12:09:40.279Z,868.72
2018-01-11T12:10:40.330Z,868.74
2018-01-11T12:11:40.358Z,868.74
2018-01-11T12:13:40.420Z,868.75
2018-01-11T12:14:40.474Z,868.78
2018-01-11T12:15:40.776Z,868.76
2018-01-11T12:16:40.525Z,868.76
2018-01-11T12:17:40.554Z,868.75
2018-01-11T12:18:40.567Z,868.76
2018-01-11T12:19:40.617Z,868.85
2018-01-11T12:20:40.669Z,868.85
2018-01-11T12:21:40.683Z,868.86
2018-01-11T12:22:40.713Z,868.86
2018-01-11T12:23:40.780Z,868.86
2018-01-11T12:24:40.772Z,868.86
2018-01-11T12:25:40.805Z,868.83
2018-01-11T12:26:40.848Z,868.86
2018-01-11T12:27:40.879Z,868.96
2018-01-11T12:28:40.921Z,868.96
2018-01-11T12:29:40.969Z,868.97
2018-01-11T12:30:40.982Z,868.93
2018-01-11T12:31:41.009Z,868.92
2018-01-11T12:32:41.035Z,868.93
2018-01-11T12:33:41.063Z,868.93
2018-01-11T12:34:41.197Z,868.91
2018-01-11T12:35:41.161Z,868.92
2018-01-11T12:36:41.176Z,868.89
2018-01-11T12:37:41.209Z,868.99
2018-01-11T12:38:41.233Z,868.99
2018-01-11T12:39:41.255Z,869.02
2018-01-11T12:40:41.285Z,869.03
2018-01-11T12:41:41.490Z,869.01
2018-01-11T12:42:41.506Z,869.06
2018-01-11T12:43:41.403Z,869.07
2018-01-11T12:44:41.429Z,869.05